Time;durP1;ratioP1;P1;durP2;ratioP2;P2;SDS_P1;SDS_P2;PMS_P1;PMS_P2;Temp;Humidity;BMP_temperature;BMP_pressure;BME280_temperature;BME280_humidity;BME280_pressure;Samples;Min_cycle;Max_cycle;Signal;HPM_P1;HPM_P2
2023/03/05 00:00:15;;;;;;;;;;;;;;;-142.41;100.00;64449.00;5114614;28;19915;-65
2023/03/05 00:02:41;;;;;;;;;;;;;;;-142.41;100.00;64449.00;5114897;28;19912;-63
2023/03/05 00:05:06;;;;;;;;;;;;;;;-142.41;100.00;64449.00;5114629;28;19965;-65
2023/03/05 00:07:32;;;;;;;;;;;;;;;-142.41;100.00;64449.00;5114731;28;19919;-64
2023/03/05 00:09:58;;;;;;;;;;;;;;;-142.41;100.00;64449.00;5114009;28;20064;-64
2023/03/05 00:12:23;;;;;;;;;;;;;;;-142.41;100.00;64449.00;5114682;28;20271;-65
2023/03/05 00:14:49;;;;;;;;;;;;;;;-142.41;100.00;64449.00;5114418;28;19918;-65
2023/03/05 00:17:14;;;;;;;;;;;;;;;-142.41;100.00;64449.00;5114623;28;19915;-64
2023/03/05 00:19:39;;;;;;;;;;;;;;;-142.41;100.00;64449.00;5114526;28;20293;-65
2023/03/05 00:22:05;;;;;;;;;;;;;;;-142.41;100.00;64449.00;5114178;28;19922;-64
2023/03/05 00:24:30;;;;;;;;;;;;;;;-142.41;100.00;64449.00;5114334;28;19918;-66
2023/03/05 00:26:55;;;;;;;;;;;;;;;-142.41;100.00;64449.00;5114267;28;19959;-64
2023/03/05 00:29:21;;;;;;;;;;;;;;;-142.41;100.00;64449.00;5114053;28;19911;-65
2023/03/05 00:31:47;;;;;;;;;;;;;;;-142.41;100.00;64449.00;5113911;28;19923;-65
2023/03/05 00:34:14;;;;;;;;;;;;;;;-142.41;100.00;64449.00;5113901;28;19916;-65
2023/03/05 00:36:43;;;;;;;;;;;;;;;-142.41;100.00;64449.00;5113995;28;20271;-64
2023/03/05 00:39:09;;;;;;;;;;;;;;;-142.41;100.00;64449.00;5113899;28;19918;-65
2023/03/05 00:41:34;;;;;;;;;;;;;;;-142.41;100.00;64449.00;5114086;28;19999;-65
2023/03/05 00:44:00;;;;;;;;;;;;;;;-142.41;100.00;64449.00;5114198;28;20351;-64
2023/03/05 00:46:26;;;;;;;;;;;;;;;-142.41;100.00;64449.00;5114020;28;20339;-64
2023/03/05 00:48:51;;;;;;;;;;;;;;;-142.41;100.00;64449.00;5114041;28;20052;-65
2023/03/05 00:51:17;;;;;;;;;;;;;;;-142.41;100.00;64449.00;5115254;28;19965;-65
2023/03/05 00:53:42;;;;;;;;;;;;;;;-142.41;100.00;64449.00;5113454;28;19916;-63
2023/03/05 00:56:08;;;;;;;;;;;;;;;-142.41;100.00;64449.00;5113821;28;19968;-66
2023/03/05 00:58:33;;;;;;;;;;;;;;;-142.41;100.00;64449.00;5113709;28;19912;-64
2023/03/05 01:01:00;;;;;;;;;;;;;;;-142.41;100.00;64449.00;5113697;28;19911;-65
2023/03/05 01:03:25;;;;;;;;;;;;;;;-142.41;100.00;64449.00;5113690;28;19922;-65
2023/03/05 01:05:51;;;;;;;;;;;;;;;-142.41;100.00;64449.00;5113706;28;19912;-67
2023/03/05 01:08:16;;;;;;;;;;;;;;;-142.41;100.00;64449.00;5113739;28;19946;-65
2023/03/05 01:10:42;;;;;;;;;;;;;;;-142.41;100.00;64449.00;5113401;28;19919;-65
2023/03/05 01:13:07;;;;;;;;;;;;;;;-142.41;100.00;64449.00;5113468;28;19965;-64
2023/03/05 01:15:33;;;;;;;;;;;;;;;-142.41;100.00;64449.00;5113260;28;19965;-65
2023/03/05 01:17:58;;;;;;;;;;;;;;;-142.41;100.00;64449.00;5113329;28;19912;-66
2023/03/05 01:20:24;;;;;;;;;;;;;;;-142.41;100.00;64449.00;5112491;28;20007;-64
2023/03/05 01:22:49;;;;;;;;;;;;;;;-142.41;100.00;64449.00;5113144;28;19950;-64
2023/03/05 01:25:15;;;;;;;;;;;;;;;-142.41;100.00;64449.00;5113478;28;19919;-65
2023/03/05 01:27:40;;;;;;;;;;;;;;;-142.41;100.00;64449.00;5113198;28;19919;-66
2023/03/05 01:30:07;;;;;;;;;;;;;;;-142.41;100.00;64449.00;5113171;28;19919;-63
2023/03/05 01:32:33;;;;;;;;;;;;;;;-142.41;100.00;64449.00;5112960;28;19917;-65
2023/03/05 01:34:59;;;;;;;;;;;;;;;-142.41;100.00;64449.00;5112675;28;19923;-66
2023/03/05 01:37:24;;;;;;;;;;;;;;;-142.41;100.00;64449.00;5112821;28;19912;-66
2023/03/05 01:39:50;;;;;;;;;;;;;;;-142.41;100.00;64449.00;5113261;28;19912;-65
2023/03/05 01:42:15;;;;;;;;;;;;;;;-142.41;100.00;64449.00;5112930;28;19912;-65
2023/03/05 01:44:58;;;;;;;;;;;;;;;-142.41;100.00;64449.00;5113179;28;19911;-65
2023/03/05 01:47:23;;;;;;;;;;;;;;;-142.41;100.00;64449.00;5112943;28;19912;-65
2023/03/05 01:49:48;;;;;;;;;;;;;;;-142.41;100.00;64449.00;5112821;28;19957;-64
2023/03/05 01:52:18;;;;;;;;;;;;;;;-142.41;100.00;64449.00;5112774;28;19911;-65
2023/03/05 01:54:46;;;;;;;;;;;;;;;-142.41;100.00;64449.00;5113060;28;19916;-66
2023/03/05 01:57:13;;;;;;;;;;;;;;;-142.41;100.00;64449.00;5113198;28;20401;-65
2023/03/05 01:59:40;;;;;;;;;;;;;;;-142.41;100.00;64449.00;5112803;28;19911;-66
2023/03/05 02:02:07;;;;;;;;;;;;;;;-142.41;100.00;64449.00;5094784;28;19920;-64
2023/03/05 02:04:38;;;;;;;;;;;;;;;-142.41;100.00;64449.00;5113101;28;19919;-64
2023/03/05 02:07:04;;;;;;;;;;;;;;;-142.41;100.00;64449.00;5112940;28;19947;-65
2023/03/05 02:09:29;;;;;;;;;;;;;;;-142.41;100.00;64449.00;5113142;28;19958;-64
2023/03/05 02:11:55;;;;;;;;;;;;;;;-142.41;100.00;64449.00;5112934;28;20351;-65
2023/03/05 02:14:23;;;;;;;;;;;;;;;-142.41;100.00;64449.00;5112565;28;19912;-64
2023/03/05 02:16:48;;;;;;;;;;;;;;;-142.41;100.00;64449.00;5112643;28;20377;-67
2023/03/05 02:19:14;;;;;;;;;;;;;;;-142.41;100.00;64449.00;5112646;28;19911;-64
2023/03/05 02:21:40;;;;;;;;;;;;;;;-142.41;100.00;64449.00;5112723;28;20010;-65
2023/03/05 02:24:06;;;;;;;;;;;;;;;-142.41;100.00;64449.00;5112499;28;19919;-65
2023/03/05 02:26:31;;;;;;;;;;;;;;;-142.41;100.00;64449.00;5113133;28;19911;-66
2023/03/05 02:28:59;;;;;;;;;;;;;;;-142.41;100.00;64449.00;5113265;28;19956;-65
2023/03/05 02:31:25;;;;;;;;;;;;;;;-142.41;100.00;64449.00;5113098;28;19915;-66
2023/03/05 02:33:52;;;;;;;;;;;;;;;-142.41;100.00;64449.00;5081366;28;19974;-67
2023/03/05 02:36:18;;;;;;;;;;;;;;;-142.41;100.00;64449.00;5098276;28;20325;-66
2023/03/05 02:38:44;;;;;;;;;;;;;;;-142.41;100.00;64449.00;5116300;28;20290;-65
2023/03/05 02:41:09;;;;;;;;;;;;;;;-142.41;100.00;64449.00;5117213;28;19916;-67
2023/03/05 02:43:35;;;;;;;;;;;;;;;-142.41;100.00;64449.00;5119197;28;19916;-66
2023/03/05 02:46:00;;;;;;;;;;;;;;;-142.41;100.00;64449.00;5100983;28;19956;-65
2023/03/05 02:48:26;;;;;;;;;;;;;;;-142.41;100.00;64449.00;5117656;28;19911;-65
2023/03/05 02:50:52;;;;;;;;;;;;;;;-142.41;100.00;64449.00;5120097;28;20363;-67
2023/03/05 02:53:17;;;;;;;;;;;;;;;-142.41;100.00;64449.00;5117263;28;19918;-67
2023/03/05 02:55:45;;;;;;;;;;;;;;;-142.41;100.00;64449.00;5117365;28;19967;-66
2023/03/05 02:58:10;;;;;;;;;;;;;;;-142.41;100.00;64449.00;5117646;28;19943;-66
2023/03/05 03:00:35;;;;;;;;;;;;;;;-142.41;100.00;64449.00;5117085;28;19919;-65
2023/03/05 03:03:01;;;;;;;;;;;;;;;-142.41;100.00;64449.00;5117349;28;19912;-65
2023/03/05 03:05:26;;;;;;;;;;;;;;;-142.41;100.00;64449.00;5116546;28;19912;-64
2023/03/05 03:07:51;;;;;;;;;;;;;;;-142.41;100.00;64449.00;5116366;28;19915;-69
2023/03/05 03:10:17;;;;;;;;;;;;;;;-142.41;100.00;64449.00;5117154;28;20019;-64
2023/03/05 03:12:43;;;;;;;;;;;;;;;-142.41;100.00;64449.00;5116288;28;19911;-68
2023/03/05 03:15:09;;;;;;;;;;;;;;;-142.41;100.00;64449.00;5097152;28;19912;-66
2023/03/05 03:17:35;;;;;;;;;;;;;;;-142.41;100.00;64449.00;5115566;28;20302;-64
2023/03/05 03:20:02;;;;;;;;;;;;;;;-142.41;100.00;64449.00;5115565;28;20366;-66
2023/03/05 03:22:28;;;;;;;;;;;;;;;-142.41;100.00;64449.00;5115725;28;19926;-67
2023/03/05 03:24:54;;;;;;;;;;;;;;;-142.41;100.00;64449.00;5097710;28;19911;-65
2023/03/05 03:27:20;;;;;;;;;;;;;;;-142.41;100.00;64449.00;5115505;28;19911;-63
2023/03/05 03:29:45;;;;;;;;;;;;;;;-142.41;100.00;64449.00;5117056;28;20011;-65
2023/03/05 03:32:11;;;;;;;;;;;;;;;-142.41;100.00;64449.00;5116824;28;19915;-68
2023/03/05 03:34:36;;;;;;;;;;;;;;;-142.41;100.00;64449.00;5115408;28;20015;-67
2023/03/05 03:37:01;;;;;;;;;;;;;;;-142.41;100.00;64449.00;5115705;28;19950;-67
2023/03/05 03:39:27;;;;;;;;;;;;;;;-142.41;100.00;64449.00;5115766;28;19912;-67
2023/03/05 03:41:53;;;;;;;;;;;;;;;-142.41;100.00;64449.00;5115801;28;19918;-65
2023/03/05 03:44:19;;;;;;;;;;;;;;;-142.41;100.00;64449.00;5115157;28;19934;-64
2023/03/05 03:46:47;;;;;;;;;;;;;;;-142.41;100.00;64449.00;5115724;28;19945;-65
2023/03/05 03:49:18;;;;;;;;;;;;;;;-142.41;100.00;64449.00;5097647;28;20400;-64
2023/03/05 03:51:43;;;;;;;;;;;;;;;-142.41;100.00;64449.00;5115564;28;19960;-66
2023/03/05 03:54:09;;;;;;;;;;;;;;;-142.41;100.00;64449.00;5115080;28;19912;-65
2023/03/05 03:56:34;;;;;;;;;;;;;;;-142.41;100.00;64449.00;5114865;28;19937;-66
2023/03/05 03:59:00;;;;;;;;;;;;;;;-142.41;100.00;64449.00;5114772;28;19912;-66
2023/03/05 04:01:25;;;;;;;;;;;;;;;-142.41;100.00;64449.00;5114601;28;19911;-65
2023/03/05 04:03:50;;;;;;;;;;;;;;;-142.41;100.00;64449.00;5114777;28;20466;-66
2023/03/05 04:06:17;;;;;;;;;;;;;;;-142.41;100.00;64449.00;5114681;28;19912;-67
2023/03/05 04:08:48;;;;;;;;;;;;;;;-142.41;100.00;64449.00;5114586;28;19912;-66
2023/03/05 04:11:14;;;;;;;;;;;;;;;-142.41;100.00;64449.00;5114300;28;19951;-67
2023/03/05 04:13:39;;;;;;;;;;;;;;;-142.41;100.00;64449.00;5114212;28;19912;-65
2023/03/05 04:16:05;;;;;;;;;;;;;;;-142.41;100.00;64449.00;5096081;28;20362;-65
2023/03/05 04:18:30;;;;;;;;;;;;;;;-142.41;100.00;64449.00;5114501;28;19934;-65
2023/03/05 04:20:56;;;;;;;;;;;;;;;-142.41;100.00;64449.00;5114366;28;20362;-66
2023/03/05 04:23:21;;;;;;;;;;;;;;;-142.41;100.00;64449.00;5114588;28;20244;-65
2023/03/05 04:25:46;;;;;;;;;;;;;;;-142.41;100.00;64449.00;5113952;28;19912;-68
2023/03/05 04:28:12;;;;;;;;;;;;;;;-142.41;100.00;64449.00;5113783;28;20322;-65
2023/03/05 04:30:37;;;;;;;;;;;;;;;-142.41;100.00;64449.00;5113659;28;19915;-65
2023/03/05 04:33:03;;;;;;;;;;;;;;;-142.41;100.00;64449.00;5114032;28;19922;-65
2023/03/05 04:35:29;;;;;;;;;;;;;;;-142.41;100.00;64449.00;5113564;28;19916;-67
2023/03/05 04:37:54;;;;;;;;;;;;;;;-142.41;100.00;64449.00;5114061;28;20007;-64
2023/03/05 04:40:19;;;;;;;;;;;;;;;-142.41;100.00;64449.00;5113756;28;20359;-65
2023/03/05 04:42:45;;;;;;;;;;;;;;;-142.41;100.00;64449.00;5095694;28;20300;-64
2023/03/05 04:45:11;;;;;;;;;;;;;;;-142.41;100.00;64449.00;5113902;28;19920;-66
2023/03/05 04:47:37;;;;;;;;;;;;;;;-142.41;100.00;64449.00;5113863;28;20056;-65
2023/03/05 04:50:03;;;;;;;;;;;;;;;-142.41;100.00;64449.00;5114420;28;19912;-64
2023/03/05 04:52:28;;;;;;;;;;;;;;;-142.41;100.00;64449.00;5096066;28;20393;-68
2023/03/05 04:54:54;;;;;;;;;;;;;;;-142.41;100.00;64449.00;5113458;28;19912;-66
2023/03/05 04:57:19;;;;;;;;;;;;;;;-142.41;100.00;64449.00;5113720;28;19918;-65
2023/03/05 04:59:44;;;;;;;;;;;;;;;-142.41;100.00;64449.00;5113560;28;19998;-68
2023/03/05 05:02:10;;;;;;;;;;;;;;;-142.41;100.00;64449.00;5113703;28;19912;-67
2023/03/05 05:04:35;;;;;;;;;;;;;;;-142.41;100.00;64449.00;5113807;28;20317;-66
2023/03/05 05:07:00;;;;;;;;;;;;;;;-142.41;100.00;64449.00;5095390;28;20274;-65
2023/03/05 05:09:26;;;;;;;;;;;;;;;-142.41;100.00;64449.00;5113266;28;19912;-66
2023/03/05 05:11:51;;;;;;;;;;;;;;;-142.41;100.00;64449.00;5094970;28;19912;-66
2023/03/05 05:14:17;;;;;;;;;;;;;;;-142.41;100.00;64449.00;5113270;28;19911;-68
2023/03/05 05:16:42;;;;;;;;;;;;;;;-142.41;100.00;64449.00;5113308;28;19911;-67
2023/03/05 05:19:10;;;;;;;;;;;;;;;-142.41;100.00;64449.00;5114674;28;19956;-66
2023/03/05 05:21:36;;;;;;;;;;;;;;;-142.41;100.00;64449.00;5115459;28;20443;-66
2023/03/05 05:24:05;;;;;;;;;;;;;;;-142.41;100.00;64449.00;5094791;28;20004;-65
2023/03/05 05:26:30;;;;;;;;;;;;;;;-142.41;100.00;64449.00;5112438;28;20381;-65
2023/03/05 05:28:56;;;;;;;;;;;;;;;-142.41;100.00;64449.00;5094931;28;19957;-66
2023/03/05 05:31:21;;;;;;;;;;;;;;;-142.41;100.00;64449.00;5112164;28;19941;-67
2023/03/05 05:33:47;;;;;;;;;;;;;;;-142.41;100.00;64449.00;5112497;28;19916;-67
2023/03/05 05:36:14;;;;;;;;;;;;;;;-142.41;100.00;64449.00;5112340;28;19916;-66
2023/03/05 05:38:40;;;;;;;;;;;;;;;-142.41;100.00;64449.00;5112783;28;19912;-65
2023/03/05 05:41:07;;;;;;;;;;;;;;;-142.41;100.00;64449.00;5112773;28;19916;-67
2023/03/05 05:43:32;;;;;;;;;;;;;;;-142.41;100.00;64449.00;5112940;28;19965;-66
2023/03/05 05:45:58;;;;;;;;;;;;;;;-142.41;100.00;64449.00;5112887;28;19911;-66
2023/03/05 05:48:24;;;;;;;;;;;;;;;-142.41;100.00;64449.00;5112553;28;20053;-67
2023/03/05 05:50:49;;;;;;;;;;;;;;;-142.41;100.00;64449.00;5112911;28;20013;-69
2023/03/05 05:53:14;;;;;;;;;;;;;;;-142.41;100.00;64449.00;5112744;28;19934;-64
2023/03/05 05:55:40;;;;;;;;;;;;;;;-142.41;100.00;64449.00;5112581;28;19911;-66
2023/03/05 05:58:05;;;;;;;;;;;;;;;-142.41;100.00;64449.00;5112700;28;19965;-65
2023/03/05 06:00:30;;;;;;;;;;;;;;;-142.41;100.00;64449.00;5113076;28;20367;-69
2023/03/05 06:02:56;;;;;;;;;;;;;;;-142.41;100.00;64449.00;5112798;28;19912;-66
2023/03/05 06:05:21;;;;;;;;;;;;;;;-142.41;100.00;64449.00;5112824;28;19915;-67
2023/03/05 06:07:46;;;;;;;;;;;;;;;-142.41;100.00;64449.00;5115174;27;19964;-66
2023/03/05 06:10:12;;;;;;;;;;;;;;;-142.41;100.00;64449.00;5116851;28;20302;-65
2023/03/05 06:12:38;;;;;;;;;;;;;;;-142.41;100.00;64449.00;5115862;28;19969;-66
2023/03/05 06:15:03;;;;;;;;;;;;;;;-142.41;100.00;64449.00;5116345;28;20304;-65
2023/03/05 06:17:29;;;;;;;;;;;;;;;-142.41;100.00;64449.00;5116677;28;19918;-65
2023/03/05 06:19:54;;;;;;;;;;;;;;;-142.41;100.00;64449.00;5117176;27;19915;-66
2023/03/05 06:22:20;;;;;;;;;;;;;;;-142.41;100.00;64449.00;5137153;27;19973;-65
2023/03/05 06:24:45;;;;;;;;;;;;;;;-142.41;100.00;64449.00;5137088;27;20261;-66
2023/03/05 06:27:11;;;;;;;;;;;;;;;-142.41;100.00;64449.00;5137311;27;19953;-65
2023/03/05 06:29:36;;;;;;;;;;;;;;;-142.41;100.00;64449.00;5136991;27;19919;-65
2023/03/05 06:32:03;;;;;;;;;;;;;;;-142.41;100.00;64449.00;5136452;27;19915;-66
2023/03/05 06:34:29;;;;;;;;;;;;;;;-142.41;100.00;64449.00;5136760;27;20419;-64
2023/03/05 06:36:56;;;;;;;;;;;;;;;-142.41;100.00;64449.00;5136737;27;19919;-66
2023/03/05 06:39:21;;;;;;;;;;;;;;;-142.41;100.00;64449.00;5136562;27;20026;-70
2023/03/05 06:41:49;;;;;;;;;;;;;;;-142.41;100.00;64449.00;5118379;27;19911;-69
2023/03/05 06:44:14;;;;;;;;;;;;;;;-142.41;100.00;64449.00;5137013;27;19918;-71
2023/03/05 06:46:40;;;;;;;;;;;;;;;-142.41;100.00;64449.00;5136804;27;19911;-67
2023/03/05 06:49:07;;;;;;;;;;;;;;;-142.41;100.00;64449.00;5136668;27;19922;-65
2023/03/05 06:51:34;;;;;;;;;;;;;;;-142.41;100.00;64449.00;5136726;27;19958;-68
2023/03/05 06:54:00;;;;;;;;;;;;;;;-142.41;100.00;64449.00;5136517;27;20014;-67
2023/03/05 06:56:26;;;;;;;;;;;;;;;-142.41;100.00;64449.00;5136345;27;20287;-66
2023/03/05 06:58:51;;;;;;;;;;;;;;;-142.41;100.00;64449.00;5136548;27;19911;-68
2023/03/05 07:01:18;;;;;;;;;;;;;;;-142.41;100.00;64449.00;5118222;27;19952;-65
2023/03/05 07:03:43;;;;;;;;;;;;;;;-142.41;100.00;64449.00;5136413;27;20367;-67
2023/03/05 07:06:10;;;;;;;;;;;;;;;-142.41;100.00;64449.00;5136303;27;19933;-67
2023/03/05 07:08:36;;;;;;;;;;;;;;;-142.41;100.00;64449.00;5135846;27;19920;-65
2023/03/05 07:11:02;;;;;;;;;;;;;;;-142.41;100.00;64449.00;5130927;27;19919;-66
2023/03/05 07:13:28;;;;;;;;;;;;;;;-142.41;100.00;64449.00;5125133;27;20009;-65
2023/03/05 07:15:53;;;;;;;;;;;;;;;-142.41;100.00;64449.00;5135672;27;20355;-65
2023/03/05 07:18:19;;;;;;;;;;;;;;;-142.41;100.00;64449.00;5135029;27;19954;-64
2023/03/05 07:20:44;;;;;;;;;;;;;;;-142.41;100.00;64449.00;5135997;27;20377;-69
2023/03/05 07:23:09;;;;;;;;;;;;;;;-142.41;100.00;64449.00;5136048;27;20032;-68
2023/03/05 07:25:35;;;;;;;;;;;;;;;-142.41;100.00;64449.00;5135657;27;19919;-63
2023/03/05 07:28:02;;;;;;;;;;;;;;;-142.41;100.00;64449.00;5135790;27;19980;-64
2023/03/05 07:30:29;;;;;;;;;;;;;;;-142.41;100.00;64449.00;5135745;27;20087;-64
2023/03/05 07:32:54;;;;;;;;;;;;;;;-142.41;100.00;64449.00;5135793;27;20044;-67
2023/03/05 07:35:20;;;;;;;;;;;;;;;-142.41;100.00;64449.00;5135545;27;20010;-63
2023/03/05 07:37:45;;;;;;;;;;;;;;;-142.41;100.00;64449.00;5135687;27;20004;-64
2023/03/05 07:40:11;;;;;;;;;;;;;;;-142.41;100.00;64449.00;5135609;27;19912;-64
2023/03/05 07:42:36;;;;;;;;;;;;;;;-142.41;100.00;64449.00;5135516;27;19915;-63
2023/03/05 07:45:01;;;;;;;;;;;;;;;-142.41;100.00;64449.00;5135281;27;19918;-64
2023/03/05 07:47:27;;;;;;;;;;;;;;;-142.41;100.00;64449.00;5135133;27;19912;-65
2023/03/05 07:49:52;;;;;;;;;;;;;;;-142.41;100.00;64449.00;5135283;27;19919;-65
2023/03/05 07:52:18;;;;;;;;;;;;;;;-142.41;100.00;64449.00;5131524;27;20014;-64
2023/03/05 07:54:43;;;;;;;;;;;;;;;-142.41;100.00;64449.00;5123855;27;19941;-66
2023/03/05 07:57:09;;;;;;;;;;;;;;;-142.41;100.00;64449.00;5130743;27;19912;-68
2023/03/05 07:59:36;;;;;;;;;;;;;;;-142.41;100.00;64449.00;5135357;27;19911;-65
2023/03/05 08:02:02;;;;;;;;;;;;;;;-142.41;100.00;64449.00;5132985;27;20002;-66
2023/03/05 08:04:30;;;;;;;;;;;;;;;-142.41;100.00;64449.00;5122721;27;20002;-65
2023/03/05 08:06:56;;;;;;;;;;;;;;;-142.41;100.00;64449.00;5114880;28;19967;-65
2023/03/05 08:09:21;;;;;;;;;;;;;;;-142.41;100.00;64449.00;5115436;28;19915;-64
2023/03/05 08:11:46;;;;;;;;;;;;;;;-142.41;100.00;64449.00;5124732;27;20328;-66
2023/03/05 08:14:12;;;;;;;;;;;;;;;-142.41;100.00;64449.00;5121046;27;19922;-65
2023/03/05 08:16:38;;;;;;;;;;;;;;;-142.41;100.00;64449.00;5123692;27;20447;-66
2023/03/05 08:19:03;;;;;;;;;;;;;;;-142.41;100.00;64449.00;5123124;27;19924;-67
2023/03/05 08:21:29;;;;;;;;;;;;;;;-142.41;100.00;64449.00;5123716;27;19919;-67
2023/03/05 08:23:56;;;;;;;;;;;;;;;-142.41;100.00;64449.00;5122136;27;19945;-66
2023/03/05 08:26:23;;;;;;;;;;;;;;;-142.41;100.00;64449.00;5102002;27;19959;-66
2023/03/05 08:28:48;;;;;;;;;;;;;;;-142.41;100.00;64449.00;5128456;27;19911;-64
2023/03/05 08:31:14;;;;;;;;;;;;;;;-142.41;100.00;64449.00;5133231;27;20374;-65
2023/03/05 08:33:40;;;;;;;;;;;;;;;-142.41;100.00;64449.00;5134370;27;19947;-64
2023/03/05 08:36:06;;;;;;;;;;;;;;;-142.41;100.00;64449.00;5098851;27;20386;-65
2023/03/05 08:38:31;;;;;;;;;;;;;;;-142.41;100.00;64449.00;5134460;27;20294;-64
2023/03/05 08:40:56;;;;;;;;;;;;;;;-142.41;100.00;64449.00;5134909;27;19911;-66
2023/03/05 08:43:22;;;;;;;;;;;;;;;-142.41;100.00;64449.00;5134541;27;19911;-65
2023/03/05 08:45:48;;;;;;;;;;;;;;;-142.41;100.00;64449.00;5116635;27;19911;-63
2023/03/05 08:48:16;;;;;;;;;;;;;;;-142.41;100.00;64449.00;5134376;27;20316;-65
2023/03/05 08:50:41;;;;;;;;;;;;;;;-142.41;100.00;64449.00;5134118;27;19912;-65
2023/03/05 08:53:07;;;;;;;;;;;;;;;-142.41;100.00;64449.00;5134400;27;19912;-64
2023/03/05 08:55:32;;;;;;;;;;;;;;;-142.41;100.00;64449.00;5134374;27;19945;-65
2023/03/05 08:57:58;;;;;;;;;;;;;;;-142.41;100.00;64449.00;5134088;27;20005;-68
2023/03/05 09:00:23;;;;;;;;;;;;;;;-142.41;100.00;64449.00;5134008;27;19968;-66
2023/03/05 09:02:48;;;;;;;;;;;;;;;-142.41;100.00;64449.00;5115310;27;19964;-67
2023/03/05 09:05:14;;;;;;;;;;;;;;;-142.41;100.00;64449.00;5114571;27;19919;-68
2023/03/05 09:07:40;;;;;;;;;;;;;;;-142.41;100.00;64449.00;5115160;28;19912;-67
2023/03/05 09:10:05;;;;;;;;;;;;;;;-142.41;100.00;64449.00;5114847;28;19924;-70
2023/03/05 09:12:31;;;;;;;;;;;;;;;-142.41;100.00;64449.00;5115023;28;19916;-67
2023/03/05 09:14:56;;;;;;;;;;;;;;;-142.41;100.00;64449.00;5113054;28;19925;-70
2023/03/05 09:17:22;;;;;;;;;;;;;;;-142.41;100.00;64449.00;5112715;28;19923;-63
2023/03/05 09:19:47;;;;;;;;;;;;;;;-142.41;100.00;64449.00;5111788;28;19964;-70
2023/03/05 09:22:13;;;;;;;;;;;;;;;-142.41;100.00;64449.00;5112145;28;19953;-67
2023/03/05 09:24:38;;;;;;;;;;;;;;;-142.41;100.00;64449.00;5111684;28;19915;-68
2023/03/05 09:27:04;;;;;;;;;;;;;;;-142.41;100.00;64449.00;5113347;28;20006;-64
2023/03/05 09:29:30;;;;;;;;;;;;;;;-142.41;100.00;64449.00;5113198;28;19919;-67
2023/03/05 09:31:55;;;;;;;;;;;;;;;-142.41;100.00;64449.00;5112909;28;20002;-68
2023/03/05 09:34:21;;;;;;;;;;;;;;;-142.41;100.00;64449.00;5113271;28;20017;-67
2023/03/05 09:36:46;;;;;;;;;;;;;;;-142.41;100.00;64449.00;5113093;28;20254;-67
2023/03/05 09:39:14;;;;;;;;;;;;;;;-142.41;100.00;64449.00;5123442;27;19921;-68
2023/03/05 09:41:58;;;;;;;;;;;;;;;-142.41;100.00;64449.00;5132538;27;20039;-68
2023/03/05 09:44:27;;;;;;;;;;;;;;;-142.41;100.00;64449.00;5132501;27;20496;-65
2023/03/05 09:46:54;;;;;;;;;;;;;;;-142.41;100.00;64449.00;5133492;27;19915;-67
2023/03/05 09:49:19;;;;;;;;;;;;;;;-142.41;100.00;64449.00;5132171;27;19954;-67
2023/03/05 09:51:49;;;;;;;;;;;;;;;-142.41;100.00;64449.00;5133012;27;20335;-67
2023/03/05 09:54:23;;;;;;;;;;;;;;;-142.41;100.00;64449.00;5133228;27;19911;-66
2023/03/05 09:56:56;;;;;;;;;;;;;;;-142.41;100.00;64449.00;5133147;28;19918;-67
2023/03/05 09:59:42;;;;;;;;;;;;;;;-142.41;100.00;64449.00;5133260;28;19911;-65
2023/03/05 10:02:33;;;;;;;;;;;;;;;-142.41;100.00;64449.00;5133255;28;19912;-67
2023/03/05 10:05:03;;;;;;;;;;;;;;;-142.41;100.00;64449.00;5129029;28;20367;-65
2023/03/05 10:07:51;;;;;;;;;;;;;;;-142.41;100.00;64449.00;5133173;28;19912;-67
2023/03/05 10:10:21;;;;;;;;;;;;;;;-142.41;100.00;64449.00;5132858;28;20434;-66
2023/03/05 10:12:54;;;;;;;;;;;;;;;-142.41;100.00;64449.00;5133182;28;20390;-66
2023/03/05 10:15:25;;;;;;;;;;;;;;;-142.41;100.00;64449.00;5132999;28;19912;-66
2023/03/05 10:18:11;;;;;;;;;;;;;;;-142.41;100.00;64449.00;5133233;28;19936;-65
2023/03/05 10:20:56;;;;;;;;;;;;;;;-142.41;100.00;64449.00;5118661;28;19916;-67
2023/03/05 10:23:28;;;;;;;;;;;;;;;-142.41;100.00;64449.00;5133067;28;19911;-65
2023/03/05 10:25:53;;;;;;;;;;;;;;;-142.41;100.00;64449.00;5114611;28;20034;-64
2023/03/05 10:28:29;;;;;;;;;;;;;;;-142.41;100.00;64449.00;5114864;28;20386;-66
2023/03/05 10:31:20;;;;;;;;;;;;;;;-142.41;100.00;64449.00;5132795;28;20374;-68
2023/03/05 10:33:51;;;;;;;;;;;;;;;-142.41;100.00;64449.00;5134219;28;19937;-66
2023/03/05 10:36:37;;;;;;;;;;;;;;;-142.41;100.00;64449.00;5115726;28;19915;-69
2023/03/05 10:39:03;;;;;;;;;;;;;;;-142.41;100.00;64449.00;5133913;28;19918;-67
2023/03/05 10:42:01;;;;;;;;;;;;;;;-142.41;100.00;64449.00;5133198;28;19915;-68
2023/03/05 10:44:29;;;;;;;;;;;;;;;-142.41;100.00;64449.00;5116681;28;19916;-66
2023/03/05 10:46:56;;;;;;;;;;;;;;;-142.41;100.00;64449.00;5114672;28;19918;-67
2023/03/05 10:49:35;;;;;;;;;;;;;;;-142.41;100.00;64449.00;5132776;28;19911;-66
2023/03/05 10:52:12;;;;;;;;;;;;;;;-142.41;100.00;64449.00;5133178;28;19919;-68
2023/03/05 10:54:40;;;;;;;;;;;;;;;-142.41;100.00;64449.00;5136996;27;20882;-68
2023/03/05 10:57:08;;;;;;;;;;;;;;;-142.41;100.00;64449.00;5137560;27;20255;-66
2023/03/05 10:59:34;;;;;;;;;;;;;;;-142.41;100.00;64449.00;5118279;27;19966;-68
2023/03/05 11:02:07;;;;;;;;;;;;;;;-142.41;100.00;64449.00;5136750;27;19991;-66
2023/03/05 11:04:35;;;;;;;;;;;;;;;-142.41;100.00;64449.00;5136622;27;19912;-66
2023/03/05 11:07:21;;;;;;;;;;;;;;;-142.41;100.00;64449.00;5136754;27;19915;-67
2023/03/05 11:09:58;;;;;;;;;;;;;;;-142.41;100.00;64449.00;5122157;27;19911;-66
2023/03/05 11:12:28;;;;;;;;;;;;;;;-142.41;100.00;64449.00;5136364;27;19988;-68
2023/03/05 11:15:05;;;;;;;;;;;;;;;-142.41;100.00;64449.00;5136401;27;19957;-69
2023/03/05 11:17:33;;;;;;;;;;;;;;;-142.41;100.00;64449.00;5136582;27;20010;-67
2023/03/05 11:20:18;;;;;;;;;;;;;;;-142.41;100.00;64449.00;5136349;27;19933;-68
2023/03/05 11:23:00;;;;;;;;;;;;;;;-142.41;100.00;64449.00;5136206;27;19956;-67
2023/03/05 11:25:26;;;;;;;;;;;;;;;-142.41;100.00;64449.00;5137092;27;19915;-66
2023/03/05 11:27:54;;;;;;;;;;;;;;;-142.41;100.00;64449.00;5136808;27;19918;-66
2023/03/05 11:30:26;;;;;;;;;;;;;;;-142.41;100.00;64449.00;5136505;27;19911;-67
2023/03/05 11:33:10;;;;;;;;;;;;;;;-142.41;100.00;64449.00;5136650;27;19954;-66
2023/03/05 11:35:36;;;;;;;;;;;;;;;-142.41;100.00;64449.00;5136106;27;19912;-68
2023/03/05 11:38:03;;;;;;;;;;;;;;;-142.41;100.00;64449.00;5135880;27;19919;-68
2023/03/05 11:40:31;;;;;;;;;;;;;;;-142.41;100.00;64449.00;5136326;27;20453;-68
2023/03/05 11:43:01;;;;;;;;;;;;;;;-142.41;100.00;64449.00;5135617;27;19934;-67
2023/03/05 11:45:27;;;;;;;;;;;;;;;-142.41;100.00;64449.00;5117499;27;20324;-67
2023/03/05 11:47:55;;;;;;;;;;;;;;;-142.41;100.00;64449.00;5135542;27;20247;-67
2023/03/05 11:50:23;;;;;;;;;;;;;;;-142.41;100.00;64449.00;5135846;27;20323;-66
2023/03/05 11:52:56;;;;;;;;;;;;;;;-142.41;100.00;64449.00;5117215;27;20266;-67
2023/03/05 11:55:40;;;;;;;;;;;;;;;-142.41;100.00;64449.00;5135582;27;19934;-67
2023/03/05 11:58:06;;;;;;;;;;;;;;;-142.41;100.00;64449.00;5135279;27;20387;-67
2023/03/05 12:00:34;;;;;;;;;;;;;;;-142.41;100.00;64449.00;5116835;27;20070;-67
2023/03/05 12:03:03;;;;;;;;;;;;;;;-142.41;100.00;64449.00;5135701;27;20060;-69
2023/03/05 12:05:28;;;;;;;;;;;;;;;-142.41;100.00;64449.00;5134874;27;19911;-68
2023/03/05 12:07:56;;;;;;;;;;;;;;;-142.41;100.00;64449.00;5135489;27;20382;-68
2023/03/05 12:10:24;;;;;;;;;;;;;;;-142.41;100.00;64449.00;5135209;27;20363;-66
2023/03/05 12:13:08;;;;;;;;;;;;;;;-142.41;100.00;64449.00;5116931;27;19988;-64
2023/03/05 12:15:36;;;;;;;;;;;;;;;-142.41;100.00;64449.00;5135182;27;20016;-67
2023/03/05 12:18:11;;;;;;;;;;;;;;;-142.41;100.00;64449.00;5134912;27;20346;-66